Time;durP1;ratioP1;P1;durP2;ratioP2;P2;SDS_P1;SDS_P2;PMS_P1;PMS_P2;Temp;Humidity;BMP_temperature;BMP_pressure;BME280_temperature;BME280_humidity;BME280_pressure;Samples;Min_cycle;Max_cycle;Signal;HPM_P1;HPM_P2
2022/05/30 00:02:13;;;;;;;2.87;2.73;;;;;;;10.15;92.59;65226.69;5114861;28;20300;-72
2022/05/30 00:04:40;;;;;;;4.60;2.70;;;;;;;;;;5115451;28;20216;-73
2022/05/30 00:07:07;;;;;;;2.67;2.47;;;;;;;10.09;92.60;65220.03;5114787;28;20212;-71
2022/05/30 00:09:35;;;;;;;4.03;2.77;;;;;;;10.10;92.73;65220.59;5095432;28;20713;-71
2022/05/30 00:12:02;;;;;;;3.30;3.20;;;;;;;10.11;92.78;65224.84;5104917;28;20188;-72
2022/05/30 00:14:29;;;;;;;4.07;2.90;;;;;;;10.12;92.53;65230.59;5115247;28;20227;-71
2022/05/30 00:16:56;;;;;;;3.63;3.10;;;;;;;10.12;92.40;65231.13;5114612;28;20188;-72
2022/05/30 00:19:23;;;;;;;4.10;3.17;;;;;;;;;;5114765;28;20643;-72
2022/05/30 00:21:49;;;;;;;3.40;3.10;;;;;;;10.14;91.87;65228.19;5114921;28;20236;-71
2022/05/30 00:24:16;;;;;;;3.07;2.80;;;;;;;10.11;91.78;65227.44;5114960;28;20197;-72
2022/05/30 00:26:42;;;;;;;2.70;2.63;;;;;;;10.13;91.70;65232.25;5113416;28;20560;-71
2022/05/30 00:29:08;;;;;;;3.20;3.00;;;;;;;;;;5115360;28;20178;-71
2022/05/30 00:31:35;;;;;;;2.67;2.53;;;;;;;10.13;91.90;65231.69;5095781;28;20226;-71
2022/05/30 00:34:03;;;;;;;3.60;2.90;;;;;;;10.13;91.67;65237.44;5113766;28;20651;-72
2022/05/30 00:36:29;;;;;;;2.77;2.67;;;;;;;10.12;91.54;65223.34;5093669;28;20596;-71
2022/05/30 00:38:56;;;;;;;2.87;2.80;;;;;;;10.12;91.12;65225.41;5114762;28;20193;-72
2022/05/30 00:41:23;;;;;;;3.50;3.30;;;;;;;10.12;90.80;65236.31;5093982;28;20259;-72
2022/05/30 00:43:49;;;;;;;3.20;2.90;;;;;;;10.13;90.99;65229.09;5097057;28;20185;-72
2022/05/30 00:46:18;;;;;;;3.00;2.87;;;;;;;10.14;91.12;65230.78;5114290;28;20226;-72
2022/05/30 00:49:02;;;;;;;3.07;3.07;;;;;;;10.15;91.11;65226.69;5114006;28;20276;-72
2022/05/30 00:51:33;;;;;;;5.83;3.83;;;;;;;;;;5113895;28;20232;-72
2022/05/30 00:54:01;;;;;;;4.63;3.37;;;;;;;10.11;91.65;65230.03;5096053;28;20193;-72
2022/05/30 00:56:32;;;;;;;3.10;3.00;;;;;;;10.10;91.99;65234.09;5114106;28;20216;-72
2022/05/30 00:59:00;;;;;;;3.20;3.07;;;;;;;10.12;91.98;65225.41;5094860;28;20189;-72
2022/05/30 01:01:27;;;;;;;2.80;2.70;;;;;;;10.12;92.08;65225.94;5095043;28;20560;-71
2022/05/30 01:06:41;;;;;;;2.97;2.97;;;;;;;;;;5111930;28;20278;-71
2022/05/30 01:09:12;;;;;;;3.77;3.50;;;;;;;10.10;92.47;65223.75;5095946;28;20237;-71
2022/05/30 01:11:47;;;;;;;4.00;3.67;;;;;;;10.06;92.53;65216.69;5095895;28;20185;-71
2022/05/30 01:14:14;;;;;;;2.80;2.70;;;;;;;;;;5114106;28;20246;-72
2022/05/30 01:16:40;;;;;;;3.33;3.13;;;;;;;;;;5094758;28;20223;-72
2022/05/30 01:19:23;;;;;;;4.37;3.10;;;;;;;10.00;94.19;65223.03;5093604;28;20282;-72
2022/05/30 01:22:26;;;;;;;4.30;2.87;;;;;;;9.97;94.86;65209.34;5095615;28;20188;-72
2022/05/30 01:25:07;;;;;;;4.77;3.30;;;;;;;;;;5095615;28;20253;-72
2022/05/30 01:28:20;;;;;;;4.20;3.77;;;;;;;9.85;96.16;65201.78;5109940;28;20223;-72
2022/05/30 01:30:46;;;;;;;3.70;3.40;;;;;;;9.78;97.99;65188.28;5077506;28;20586;-71
2022/05/30 01:33:12;;;;;;;4.97;3.30;;;;;;;9.61;99.22;65178.34;5111541;28;20220;-71
2022/05/30 01:35:39;;;;;;;4.07;2.90;;;;;;;9.57;100.00;65173.94;5096309;28;20223;-72
2022/05/30 01:38:11;;;;;;;7.33;3.60;;;;;;;9.58;100.00;65164.13;5095551;28;20519;-71
2022/05/30 01:40:37;;;;;;;3.70;3.37;;;;;;;9.62;99.52;65176.84;5095911;28;20212;-72
2022/05/30 01:43:04;;;;;;;3.77;3.47;;;;;;;9.45;99.61;65152.31;5094334;28;20212;-72
2022/05/30 01:45:35;;;;;;;10.37;3.47;;;;;;;9.47;99.54;65155.06;5096503;28;20270;-72
2022/05/30 01:48:01;;;;;;;4.13;3.80;;;;;;;9.56;98.78;65165.03;5112710;28;20608;-72
2022/05/30 01:50:29;;;;;;;4.57;4.13;;;;;;;;;;5114025;28;20207;-72
2022/05/30 01:53:02;;;;;;;4.13;3.93;;;;;;;;;;5094490;28;20192;-72
2022/05/30 01:55:49;;;;;;;3.67;3.47;;;;;;;9.60;97.05;65174.09;5113832;28;20292;-73
2022/05/30 01:58:15;;;;;;;3.70;3.37;;;;;;;9.54;96.38;65154.50;5092458;28;20195;-72
2022/05/30 02:01:05;;;;;;;3.43;3.23;;;;;;;;;;5112999;28;20226;-73
2022/05/30 02:03:33;;;;;;;3.90;3.80;;;;;;;;;;5089443;28;20215;-71
2022/05/30 02:06:01;;;;;;;3.33;3.23;;;;;;;9.54;95.92;65162.81;5095608;28;20228;-72
2022/05/30 02:08:27;;;;;;;3.33;3.03;;;;;;;9.54;95.89;65164.84;5093198;28;20255;-72
2022/05/30 02:10:54;;;;;;;3.47;3.00;;;;;;;9.56;95.80;65174.84;5094624;28;20209;-71
2022/05/30 02:13:21;;;;;;;3.17;2.97;;;;;;;9.51;96.33;65164.69;5094990;28;20241;-72
2022/05/30 02:19:05;;;;;;;3.27;2.80;;;;;;;9.53;96.37;65161.72;5096724;28;20217;-71
2022/05/30 02:21:34;;;;;;;5.07;3.10;;;;;;;9.50;96.49;65155.81;5090512;28;20268;-72
2022/05/30 02:24:01;;;;;;;3.17;3.10;;;;;;;;;;5088376;28;20208;-72
2022/05/30 02:26:28;;;;;;;4.03;3.63;;;;;;;9.48;96.05;65158.22;5091855;28;20683;-71
2022/05/30 02:28:55;;;;;;;3.37;3.17;;;;;;;9.45;96.27;65163.22;5111898;28;20287;-72
2022/05/30 02:31:22;;;;;;;6.73;3.00;;;;;;;9.44;96.69;65148.63;5095278;28;20222;-72
2022/05/30 02:36:40;;;;;;;2.80;2.70;;;;;;;;;;5109890;28;20192;-71
2022/05/30 02:39:17;;;;;;;9.27;3.70;;;;;;;9.45;97.26;65157.50;5094391;28;20183;-72
2022/05/30 02:42:07;;;;;;;2.87;2.77;;;;;;;9.43;97.43;65158.44;5112272;28;20198;-72
2022/05/30 02:44:36;;;;;;;3.47;3.23;;;;;;;9.37;97.62;65144.00;5095536;28;20189;-73
2022/05/30 02:47:05;;;;;;;4.63;4.00;;;;;;;9.35;97.68;65144.38;5090632;28;20250;-72
2022/05/30 02:49:33;;;;;;;5.33;3.97;;;;;;;9.38;97.39;65145.13;5094172;28;20224;-72
2022/05/30 02:52:00;;;;;;;3.50;3.20;;;;;;;9.34;97.73;65140.69;5090356;28;20203;-72
2022/05/30 02:54:27;;;;;;;5.37;2.93;;;;;;;9.36;97.82;65143.47;5097259;28;20556;-72
2022/05/30 02:57:00;;;;;;;3.77;3.47;;;;;;;9.34;97.64;65143.81;5117089;28;20524;-72
2022/05/30 02:59:28;;;;;;;3.83;3.37;;;;;;;9.39;97.67;65138.44;5098914;28;20204;-72
2022/05/30 03:02:03;;;;;;;3.83;3.57;;;;;;;9.36;97.82;65143.47;5096740;28;20227;-72
2022/05/30 03:04:30;;;;;;;6.40;3.60;;;;;;;;;;5097408;28;20196;-72
2022/05/30 03:06:57;;;;;;;8.70;3.40;;;;;;;9.33;98.17;65139.56;5097280;28;20201;-72
2022/05/30 03:09:23;;;;;;;3.37;3.27;;;;;;;9.30;98.31;65136.81;5082829;28;20190;-72
2022/05/30 03:12:05;;;;;;;3.83;3.73;;;;;;;9.26;98.32;65137.00;5098173;28;20200;-72
2022/05/30 03:14:32;;;;;;;4.00;3.73;;;;;;;9.22;98.68;65133.13;5097859;28;20202;-72
2022/05/30 03:16:58;;;;;;;7.93;3.47;;;;;;;9.22;98.53;65130.56;5114985;28;20195;-72
2022/05/30 03:19:25;;;;;;;3.73;3.37;;;;;;;9.18;98.83;65133.88;5096769;28;20264;-72
2022/05/30 03:21:54;;;;;;;3.40;3.40;;;;;;;9.19;99.17;65124.63;5097124;28;20296;-72
2022/05/30 03:24:20;;;;;;;3.40;3.30;;;;;;;9.18;98.92;65125.56;5097416;28;20218;-72
2022/05/30 03:26:47;;;;;;;6.13;3.50;;;;;;;9.17;99.24;65121.88;5098581;28;20197;-72
2022/05/30 03:29:17;;;;;;;4.20;3.90;;;;;;;9.12;99.58;65116.31;5098624;28;20195;-72
2022/05/30 03:31:46;;;;;;;3.60;3.60;;;;;;;9.10;99.73;65115.22;5097812;28;20256;-72
2022/05/30 03:34:12;;;;;;;3.53;3.23;;;;;;;9.06;99.93;65110.78;5114833;28;20208;-72
2022/05/30 03:36:38;;;;;;;3.63;3.53;;;;;;;9.05;100.00;65109.13;5113954;28;20180;-72
2022/05/30 03:39:25;;;;;;;4.83;3.13;;;;;;;;;;5116381;28;20546;-72
2022/05/30 03:42:13;;;;;;;7.93;3.80;;;;;;;9.02;100.00;65108.41;5115640;28;20206;-72
2022/05/30 03:44:49;;;;;;;6.23;3.63;;;;;;;8.99;100.00;65103.03;5080245;28;20291;-72
2022/05/30 03:47:15;;;;;;;3.37;3.00;;;;;;;;;;5077853;28;20200;-72
2022/05/30 03:49:42;;;;;;;4.67;3.30;;;;;;;;;;5083450;28;20255;-71
2022/05/30 03:52:08;;;;;;;3.83;3.53;;;;;;;9.01;100.00;65120.81;5094628;28;20214;-71
2022/05/30 03:54:35;;;;;;;3.73;3.63;;;;;;;9.04;100.00;65108.03;5096235;28;20184;-72
2022/05/30 03:57:03;;;;;;;4.07;3.70;;;;;;;9.07;100.00;65109.31;5096868;28;20280;-71
2022/05/30 03:59:29;;;;;;;3.67;3.47;;;;;;;9.03;100.00;65110.06;5096212;28;20231;-71
2022/05/30 04:01:59;;;;;;;3.77;3.63;;;;;;;9.02;100.00;65106.38;5096163;28;20199;-73
2022/05/30 04:04:26;;;;;;;4.97;4.40;;;;;;;;;;5097038;28;20235;-71
2022/05/30 04:06:52;;;;;;;4.70;4.20;;;;;;;9.03;100.00;65106.94;5094650;28;20663;-70
2022/05/30 04:09:20;;;;;;;6.27;3.97;;;;;;;9.05;100.00;65041.81;5077054;28;20193;-70
2022/05/30 04:12:06;;;;;;;4.73;4.33;;;;;;;9.08;100.00;65123.38;5110357;28;20200;-71
2022/05/30 04:15:06;;;;;;;5.13;3.27;;;;;;;9.07;100.00;65117.09;5113904;28;20194;-70
2022/05/30 04:17:35;;;;;;;7.70;3.33;;;;;;;9.10;100.00;65115.22;5077512;28;20207;-72
2022/05/30 04:20:05;;;;;;;4.30;3.90;;;;;;;9.13;100.00;65120.03;5092107;28;20252;-72
2022/05/30 04:22:33;;;;;;;3.90;2.93;;;;;;;9.16;100.00;65125.94;5095761;28;20186;-70
2022/05/30 04:25:23;;;;;;;3.47;3.37;;;;;;;9.16;100.00;65131.13;5112600;28;20202;-72
2022/05/30 04:27:49;;;;;;;2.80;2.60;;;;;;;9.15;99.91;65124.84;5110432;28;20188;-71
2022/05/30 04:30:17;;;;;;;3.90;3.70;;;;;;;9.18;98.96;65135.91;5092233;28;20211;-71
2022/05/30 04:32:49;;;;;;;3.03;2.93;;;;;;;9.19;98.49;65122.03;5088286;28;20204;-71
2022/05/30 04:35:17;;;;;;;3.43;3.33;;;;;;;9.23;98.14;65134.25;5095494;28;20193;-71
2022/05/30 04:37:49;;;;;;;4.63;3.30;;;;;;;9.24;98.17;65129.63;5113190;28;20194;-71
2022/05/30 04:40:26;;;;;;;5.17;3.13;;;;;;;9.26;98.04;65132.38;5096973;28;20246;-71
2022/05/30 04:43:24;;;;;;;5.23;3.40;;;;;;;9.28;97.51;65134.03;5093402;28;20722;-71
2022/05/30 04:46:11;;;;;;;4.13;3.03;;;;;;;;;;5094794;28;20200;-71
2022/05/30 04:48:48;;;;;;;4.03;3.57;;;;;;;9.37;96.83;65149.19;5093355;28;20283;-72
2022/05/30 04:51:14;;;;;;;3.87;3.53;;;;;;;;;;5098988;28;20215;-72
2022/05/30 04:53:41;;;;;;;7.53;3.43;;;;;;;9.42;97.05;65152.13;5096687;28;20572;-71
2022/05/30 04:56:30;;;;;;;5.23;4.03;;;;;;;9.47;97.74;65155.06;5085738;28;20204;-72
2022/05/30 04:59:04;;;;;;;4.70;3.67;;;;;;;9.44;98.04;65153.78;5096784;28;20187;-72
2022/05/30 05:01:34;;;;;;;3.40;3.20;;;;;;;9.43;98.28;65155.84;5096840;28;20768;-72
2022/05/30 05:04:07;;;;;;;4.63;3.43;;;;;;;9.47;98.02;65155.06;5096231;28;20203;-73
2022/05/30 05:06:34;;;;;;;8.23;3.40;;;;;;;9.46;97.90;65153.97;5096778;28;20187;-72
2022/05/30 05:09:01;;;;;;;4.80;3.50;;;;;;;9.49;97.45;65154.13;5096474;28;20188;-72
2022/05/30 05:11:36;;;;;;;4.00;3.70;;;;;;;9.50;97.34;65163.59;5114618;28;20699;-73
2022/05/30 05:14:21;;;;;;;3.83;3.60;;;;;;;9.52;96.90;65158.03;5110123;28;20549;-71
2022/05/30 05:17:08;;;;;;;4.50;3.83;;;;;;;9.50;96.95;65158.41;5111615;28;20568;-71
2022/05/30 05:19:41;;;;;;;3.60;3.50;;;;;;;9.53;96.77;65161.72;5095640;28;20257;-72
2022/05/30 05:22:11;;;;;;;3.50;3.30;;;;;;;9.55;96.09;65171.69;5093487;28;20192;-72
2022/05/30 05:24:37;;;;;;;3.37;3.23;;;;;;;9.58;96.42;65167.25;5093873;28;20206;-72
2022/05/30 05:27:22;;;;;;;3.87;3.67;;;;;;;9.64;96.53;65173.34;5094522;28;20189;-72
2022/05/30 05:29:48;;;;;;;3.23;3.20;;;;;;;;;;5079335;28;20220;-72
2022/05/30 05:32:15;;;;;;;3.97;3.73;;;;;;;9.65;96.40;65171.88;5075544;28;20282;-73
2022/05/30 05:34:42;;;;;;;2.93;2.93;;;;;;;9.64;96.18;65171.31;5078174;28;20672;-71
2022/05/30 05:37:09;;;;;;;4.10;3.70;;;;;;;9.73;96.10;65198.31;5095168;28;20195;-72
2022/05/30 05:40:05;;;;;;;3.23;3.03;;;;;;;9.76;95.87;65191.25;5023859;28;20229;-71
2022/05/30 05:42:32;;;;;;;4.60;3.10;;;;;;;;;;5096217;28;20278;-72
2022/05/30 05:44:58;;;;;;;4.30;3.97;;;;;;;;;;5094240;28;20303;-73
2022/05/30 05:47:25;;;;;;;7.97;3.80;;;;;;;9.87;95.25;65209.19;5095729;28;20185;-73
2022/05/30 05:49:57;;;;;;;7.43;4.00;;;;;;;;;;5095704;28;20689;-72
2022/05/30 05:52:28;;;;;;;3.07;2.97;;;;;;;9.90;95.13;65202.13;5090868;28;20200;-72
2022/05/30 05:54:57;;;;;;;3.07;3.03;;;;;;;9.97;94.75;65214.53;5094542;28;20626;-72
2022/05/30 05:57:27;;;;;;;5.00;2.80;;;;;;;10.02;94.18;65214.31;5089275;28;21431;-72
2022/05/30 05:59:54;;;;;;;3.23;3.13;;;;;;;10.03;93.71;65215.97;5095001;28;20249;-72
2022/05/30 06:02:22;;;;;;;3.37;3.17;;;;;;;10.09;93.32;65227.81;5095694;28;20666;-72
2022/05/30 06:04:52;;;;;;;3.80;3.53;;;;;;;;;;5094002;28;20661;-72
2022/05/30 06:07:39;;;;;;;6.30;3.20;;;;;;;10.09;94.12;65214.84;5113742;28;20674;-72
2022/05/30 06:11:04;;;;;;;4.43;3.50;;;;;;;10.11;93.70;65230.03;5094797;28;20212;-73
2022/05/30 06:13:19;;;;;;;3.67;3.30;;;;;;;10.07;94.44;65219.84;5095659;28;20201;-73
2022/05/30 06:15:46;;;;;;;4.27;4.17;;;;;;;10.06;94.71;65218.75;5113966;28;20185;-73
2022/05/30 06:18:18;;;;;;;4.70;4.40;;;;;;;10.01;93.95;65221.00;5095415;28;20229;-73
2022/05/30 06:20:45;;;;;;;4.23;4.03;;;;;;;10.02;94.88;65212.28;5095369;28;20586;-73
2022/05/30 06:23:12;;;;;;;4.27;3.80;;;;;;;10.02;94.85;65217.47;5095716;28;20216;-73
2022/05/30 06:25:59;;;;;;;4.37;4.00;;;;;;;10.14;94.35;65225.59;5114226;28;20180;-73
2022/05/30 06:28:29;;;;;;;5.67;4.80;;;;;;;10.14;95.72;65225.59;5114489;28;20171;-73
2022/05/30 06:31:13;;;;;;;4.83;3.37;;;;;;;;;;5099552;28;20333;-73
2022/05/30 06:33:40;;;;;;;8.07;3.93;;;;;;;10.27;95.01;65247.22;5099712;28;20241;-73
2022/05/30 06:36:12;;;;;;;6.77;4.30;;;;;;;10.31;93.86;65245.91;5099803;28;20288;-72
2022/05/30 06:38:40;;;;;;;4.10;3.73;;;;;;;10.33;91.63;65245.53;5099697;28;20210;-72
2022/05/30 06:41:31;;;;;;;6.80;3.97;;;;;;;10.43;91.57;65261.81;5099614;28;20236;-72
2022/05/30 06:44:06;;;;;;;7.80;3.80;;;;;;;10.45;91.67;65266.63;5117867;28;20195;-72
2022/05/30 06:46:51;;;;;;;5.70;3.90;;;;;;;10.54;89.89;65273.44;5118409;28;20191;-72
2022/05/30 06:49:36;;;;;;;12.43;4.20;;;;;;;10.57;90.35;65274.72;5117915;28;20226;-72
2022/05/30 06:52:04;;;;;;;3.47;3.20;;;;;;;10.67;88.98;65285.81;5099085;28;20214;-72
2022/05/30 06:54:31;;;;;;;8.33;3.07;;;;;;;10.77;89.82;65298.38;5117700;28;20184;-72
2022/05/30 06:59:43;;;;;;;5.93;4.00;;;;;;;10.93;89.20;65323.91;5099103;28;20590;-72
2022/05/30 07:02:15;;;;;;;4.47;4.07;;;;;;;;;;5099269;28;20189;-72
2022/05/30 07:05:08;;;;;;;3.17;3.17;;;;;;;11.07;87.83;65326.44;5078226;28;20232;-72
2022/05/30 07:07:56;;;;;;;3.33;3.13;;;;;;;11.15;86.82;65334.78;5117752;28;20222;-72
2022/05/30 07:10:37;;;;;;;3.53;3.33;;;;;;;11.14;86.49;65342.00;5101049;28;20683;-72
2022/05/30 07:13:13;;;;;;;2.93;2.83;;;;;;;11.04;87.99;65323.13;5098786;28;20238;-72
2022/05/30 07:15:41;;;;;;;10.50;3.27;;;;;;;11.03;85.71;65324.63;5098792;28;20193;-72
2022/05/30 07:18:13;;;;;;;5.93;3.07;;;;;;;10.82;85.06;65301.31;5099277;28;20185;-72
2022/05/30 07:20:40;;;;;;;2.80;2.60;;;;;;;10.77;84.41;65295.78;5098816;28;20209;-72
2022/05/30 07:23:26;;;;;;;3.63;3.07;;;;;;;10.62;85.77;65285.44;5117169;28;20294;-72
2022/05/30 07:26:16;;;;;;;2.53;2.53;;;;;;;10.62;85.76;65287.50;5117496;28;20309;-72
2022/05/30 07:29:03;;;;;;;2.63;2.43;;;;;;;10.55;85.53;65269.91;5117390;28;20187;-72
2022/05/30 07:31:48;;;;;;;3.00;2.37;;;;;;;10.51;86.19;65268.09;5117278;28;20184;-72
2022/05/30 07:34:53;;;;;;;3.50;2.87;;;;;;;10.59;86.38;65273.81;5116598;28;20660;-72
2022/05/30 07:37:56;;;;;;;5.40;3.60;;;;;;;10.73;85.78;65289.88;5094718;28;20553;-72
2022/05/30 07:40:32;;;;;;;2.47;2.47;;;;;;;;;;5096843;28;20215;-72
2022/05/30 07:43:28;;;;;;;3.37;3.10;;;;;;;10.90;82.60;65307.59;5102705;28;20563;-73
2022/05/30 07:46:20;;;;;;;3.40;3.10;;;;;;;10.90;82.63;65308.16;5113321;28;20570;-72
2022/05/30 07:48:52;;;;;;;2.73;2.67;;;;;;;11.02;82.16;65328.69;5116963;28;20210;-72
2022/05/30 07:51:43;;;;;;;5.40;2.53;;;;;;;;;;5101895;28;20317;-72
2022/05/30 07:54:17;;;;;;;4.37;2.87;;;;;;;11.22;81.17;65345.69;5098019;28;20231;-72
2022/05/30 07:57:10;;;;;;;2.50;2.37;;;;;;;11.16;80.58;65338.47;5111404;28;20199;-73
2022/05/30 07:59:37;;;;;;;2.53;2.30;;;;;;;11.17;79.67;65344.78;5098173;28;20278;-71
2022/05/30 08:02:06;;;;;;;2.60;2.40;;;;;;;11.22;82.94;65345.13;5097892;28;20197;-72
2022/05/30 08:04:35;;;;;;;3.10;2.73;;;;;;;;;;5097724;28;20209;-73
2022/05/30 08:07:36;;;;;;;2.50;2.40;;;;;;;11.32;80.41;65355.66;5115794;28;20701;-72
2022/05/30 08:10:35;;;;;;;2.60;2.60;;;;;;;11.40;80.11;65364.53;5098475;28;20301;-72
2022/05/30 08:13:03;;;;;;;2.83;2.63;;;;;;;11.46;80.24;65371.19;5097578;28;20216;-72
2022/05/30 08:15:39;;;;;;;3.40;3.20;;;;;;;11.57;79.35;65383.38;5098412;28;20200;-72
2022/05/30 08:18:14;;;;;;;5.60;3.47;;;;;;;11.43;77.55;65373.03;5098405;28;20566;-72
2022/05/30 08:20:42;;;;;;;3.07;3.03;;;;;;;;;;5097891;28;20213;-72
2022/05/30 08:23:08;;;;;;;2.93;2.83;;;;;;;11.58;78.07;65387.09;5098519;28;20280;-72
2022/05/30 08:25:37;;;;;;;3.23;2.50;;;;;;;11.68;77.61;65395.59;5097395;28;20580;-71
2022/05/30 08:28:11;;;;;;;3.07;2.90;;;;;;;11.72;79.43;65396.88;5098215;28;20219;-72
2022/05/30 08:30:37;;;;;;;3.10;3.10;;;;;;;11.71;76.45;65400.97;5097731;28;20262;-71
2022/05/30 08:33:30;;;;;;;3.30;3.10;;;;;;;11.64;75.41;65391.16;5115359;28;20226;-72
2022/05/30 08:36:15;;;;;;;4.40;3.50;;;;;;;11.52;76.50;65377.84;5116025;28;20239;-72
2022/05/30 08:38:43;;;;;;;5.33;3.73;;;;;;;11.58;77.30;65387.66;5096986;28;20189;-72
2022/05/30 08:44:08;;;;;;;3.73;3.53;;;;;;;11.74;81.03;65404.31;5097289;28;20232;-71
2022/05/30 08:46:48;;;;;;;3.57;3.53;;;;;;;11.70;75.86;65389.44;5097217;28;20193;-71
2022/05/30 08:49:28;;;;;;;4.53;3.63;;;;;;;11.75;75.73;65403.34;5096862;28;20197;-72
2022/05/30 08:52:15;;;;;;;4.10;3.63;;;;;;;11.77;77.20;65408.16;5096568;28;20674;-73
2022/05/30 08:54:54;;;;;;;3.17;3.17;;;;;;;11.85;76.48;65411.88;5097737;28;20178;-72
2022/05/30 08:57:38;;;;;;;3.60;3.53;;;;;;;11.96;76.67;65426.13;5096766;28;20185;-72
2022/05/30 09:00:13;;;;;;;2.80;2.80;;;;;;;12.02;76.10;65432.78;5096757;28;20209;-72
2022/05/30 09:03:09;;;;;;;3.23;3.13;;;;;;;12.09;76.03;65432.19;5096934;28;20249;-72
2022/05/30 09:05:48;;;;;;;3.13;3.10;;;;;;;;;;5097456;28;20577;-72
2022/05/30 09:08:33;;;;;;;4.83;4.43;;;;;;;12.11;76.03;65444.81;5096618;28;20189;-72
2022/05/30 09:11:35;;;;;;;5.63;5.37;;;;;;;11.87;73.94;65407.78;5114492;28;20224;-72
2022/05/30 09:14:13;;;;;;;4.73;4.60;;;;;;;11.87;73.94;65407.78;5097098;28;20531;-72
2022/05/30 09:16:48;;;;;;;5.40;4.97;;;;;;;11.79;72.57;65405.19;5096447;28;20184;-72
2022/05/30 09:19:20;;;;;;;5.63;5.53;;;;;;;11.75;74.83;65403.34;5096284;28;20709;-71
2022/05/30 09:21:47;;;;;;;5.17;5.00;;;;;;;11.87;71.70;65416.16;5096667;28;20178;-72
2022/05/30 09:24:15;;;;;;;5.60;5.33;;;;;;;11.82;73.67;65408.00;5096267;28;20200;-71
2022/05/30 09:26:42;;;;;;;5.53;5.30;;;;;;;12.02;73.89;65429.63;5096815;28;20189;-72
2022/05/30 09:29:35;;;;;;;6.83;5.70;;;;;;;12.17;73.62;65453.53;5115225;28;20611;-72
2022/05/30 09:32:35;;;;;;;6.33;5.03;;;;;;;12.40;72.08;65474.41;5114981;28;20257;-71
2022/05/30 09:35:32;;;;;;;5.30;5.10;;;;;;;;;;5115203;28;20181;-71
2022/05/30 09:38:17;;;;;;;4.97;4.73;;;;;;;;;;5114475;28;20616;-71
2022/05/30 09:41:06;;;;;;;3.50;3.40;;;;;;;12.13;71.91;65442.38;5096568;28;20567;-72
2022/05/30 09:43:48;;;;;;;4.40;4.30;;;;;;;12.25;71.38;65457.75;5096205;28;20581;-71
2022/05/30 09:46:34;;;;;;;3.60;3.57;;;;;;;12.34;70.92;65464.59;5096500;28;20292;-71
2022/05/30 09:49:43;;;;;;;4.20;4.00;;;;;;;12.37;71.15;65470.53;5095787;28;20212;-71
2022/05/30 09:52:29;;;;;;;3.33;3.23;;;;;;;;;;5096539;28;20548;-71
2022/05/30 09:54:59;;;;;;;4.03;2.90;;;;;;;12.19;71.09;65455.75;5096330;28;20182;-71
2022/05/30 09:57:54;;;;;;;3.90;3.10;;;;;;;12.39;71.81;65472.75;5095602;28;20209;-72
2022/05/30 10:01:02;;;;;;;2.33;2.33;;;;;;;;;;5095573;28;20307;-72
2022/05/30 10:03:40;;;;;;;4.90;2.90;;;;;;;12.53;71.44;65485.13;5094157;28;20193;-72
2022/05/30 10:06:22;;;;;;;3.07;3.03;;;;;;;12.54;72.58;65486.25;5113916;28;20248;-73
2022/05/30 10:09:17;;;;;;;2.43;2.40;;;;;;;12.66;72.93;65502.16;5096051;28;20192;-73
2022/05/30 10:11:53;;;;;;;2.80;2.70;;;;;;;12.68;72.86;65501.78;5095615;28;20262;-72
2022/05/30 10:14:22;;;;;;;2.87;2.73;;;;;;;12.71;72.96;65505.09;5113734;28;20220;-72
2022/05/30 10:17:26;;;;;;;3.00;2.77;;;;;;;;;;5095716;28;20667;-73
2022/05/30 10:19:56;;;;;;;2.43;2.43;;;;;;;12.65;68.71;65498.47;5096278;28;20313;-71
2022/05/30 10:30:07;;;;;;;2.70;2.60;;;;;;;12.63;70.50;65502.00;5114035;28;20219;-72
2022/05/30 10:33:14;;;;;;;2.27;2.27;;;;;;;12.71;69.46;65512.91;5114158;28;20174;-72
2022/05/30 10:35:57;;;;;;;2.53;2.43;;;;;;;12.79;71.71;65518.66;5096262;28;20264;-72
2022/05/30 10:38:33;;;;;;;2.27;2.27;;;;;;;;;;5095256;28;20248;-72
2022/05/30 10:41:11;;;;;;;2.77;2.53;;;;;;;12.71;69.65;65507.16;5095848;28;20215;-72
2022/05/30 10:43:42;;;;;;;1.97;1.97;;;;;;;;;;5095312;28;20193;-72
2022/05/30 10:46:17;;;;;;;2.03;2.03;;;;;;;12.93;71.43;65529.56;5095133;28;20202;-72
2022/05/30 10:49:08;;;;;;;4.10;2.80;;;;;;;12.85;69.81;65520.66;5095187;28;20213;-72
2022/05/30 10:51:54;;;;;;;2.03;2.03;;;;;;;;;;5095325;28;20217;-72
2022/05/30 10:54:24;;;;;;;2.20;2.20;;;;;;;;;;5095146;28;20250;-72
2022/05/30 10:57:06;;;;;;;2.10;2.10;;;;;;;;;;5095357;28;20235;-72
2022/05/30 10:59:36;;;;;;;2.23;2.23;;;;;;;;;;5095631;28;20205;-72
2022/05/30 11:02:36;;;;;;;4.13;2.03;;;;;;;13.22;68.49;65563.28;5095619;28;20186;-73
2022/05/30 11:05:08;;;;;;;2.13;2.07;;;;;;;13.34;69.10;65578.66;5113851;28;20542;-73
2022/05/30 11:07:46;;;;;;;3.50;1.80;;;;;;;13.34;69.79;65573.44;5113640;28;20180;-72
2022/05/30 11:10:16;;;;;;;2.00;1.90;;;;;;;13.11;67.22;65551.59;5095419;28;20213;-72
2022/05/30 11:12:47;;;;;;;1.73;1.73;;;;;;;13.11;67.73;65551.03;5095565;28;20255;-72
2022/05/30 11:15:28;;;;;;;2.10;2.10;;;;;;;13.12;65.71;65549.53;5096465;28;20200;-72
2022/05/30 11:18:38;;;;;;;5.27;2.07;;;;;;;13.22;66.44;65560.69;5117391;28;20184;-72
2022/05/30 11:21:36;;;;;;;2.33;2.33;;;;;;;13.14;69.40;65552.31;5099483;28;20211;-72
2022/05/30 11:24:04;;;;;;;3.17;2.53;;;;;;;13.20;70.36;65571.47;5098495;28;20270;-72
2022/05/30 11:26:59;;;;;;;2.93;2.93;;;;;;;13.18;66.87;65566.63;5116892;28;20180;-72
2022/05/30 11:29:26;;;;;;;2.20;2.10;;;;;;;;;;5113399;28;20230;-70
2022/05/30 11:32:07;;;;;;;4.07;2.70;;;;;;;;;;5113358;28;20181;-71
2022/05/30 11:34:40;;;;;;;3.20;2.90;;;;;;;;;;5103354;28;20213;-71
2022/05/30 11:37:18;;;;;;;2.70;2.70;;;;;;;13.07;64.88;65546.59;5095058;28;20232;-72
2022/05/30 11:39:53;;;;;;;3.47;2.73;;;;;;;;;;5114967;28;20254;-71
2022/05/30 11:42:50;;;;;;;2.37;2.27;;;;;;;13.02;66.52;65544.19;5116801;28;20207;-71
2022/05/30 11:45:54;;;;;;;2.30;2.20;;;;;;;13.16;71.28;65562.38;5116457;28;20249;-72
2022/05/30 11:48:48;;;;;;;2.37;2.37;;;;;;;13.28;71.56;65566.78;5116751;28;20577;-72
2022/05/30 11:51:22;;;;;;;3.10;2.90;;;;;;;13.33;67.09;65567.13;5116341;28;20804;-72
2022/05/30 11:54:03;;;;;;;2.63;2.53;;;;;;;;;;5116288;28;20189;-72
2022/05/30 11:56:42;;;;;;;2.33;2.33;;;;;;;13.13;68.39;65559.00;5116530;28;20203;-72
2022/05/30 11:59:34;;;;;;;3.10;2.97;;;;;;;13.08;68.94;65548.25;5116691;28;20181;-72
2022/05/30 12:02:04;;;;;;;2.93;2.83;;;;;;;;;;5116637;28;20180;-72
2022/05/30 12:04:54;;;;;;;2.40;2.40;;;;;;;13.08;66.74;65547.72;5116840;28;20529;-72
2022/05/30 12:07:36;;;;;;;2.00;2.00;;;;;;;13.19;68.15;65557.31;5116678;28;20185;-72
2022/05/30 12:10:21;;;;;;;2.37;2.37;;;;;;;;;;5116301;28;20229;-72
2022/05/30 12:12:55;;;;;;;2.23;2.23;;;;;;;;;;5116316;28;20624;-72
2022/05/30 12:15:59;;;;;;;2.10;2.10;;;;;;;13.39;67.75;65579.00;5116813;28;20191;-72
2022/05/30 12:24:18;;;;;;;2.70;2.50;;;;;;;13.41;66.59;65581.78;5116135;28;20192;-71
2022/05/30 12:26:55;;;;;;;4.53;2.37;;;;;;;;;;5115899;28;20181;-71
2022/05/30 12:29:41;;;;;;;2.30;2.30;;;;;;;13.38;68.74;65580.50;5115121;28;21699;-71
2022/05/30 12:32:17;;;;;;;2.60;2.40;;;;;;;13.37;67.40;65577.34;5096191;28;20220;-71
2022/05/30 12:35:11;;;;;;;3.60;2.13;;;;;;;13.46;65.02;65587.34;5113561;28;20685;-71
2022/05/30 12:37:51;;;;;;;2.77;2.53;;;;;;;13.54;65.51;65595.13;5087160;28;20196;-71
2022/05/30 12:40:24;;;;;;;2.20;2.20;;;;;;;13.54;65.25;65597.72;5110466;28;20220;-71
2022/05/30 12:43:09;;;;;;;2.17;2.17;;;;;;;13.63;66.30;65608.28;5108507;28;20227;-71
2022/05/30 12:45:40;;;;;;;2.07;2.00;;;;;;;;;;5095613;28;20663;-71
2022/05/30 12:48:31;;;;;;;1.83;1.83;;;;;;;13.85;65.69;65634.78;5106256;28;20216;-71
2022/05/30 12:51:19;;;;;;;2.27;2.17;;;;;;;14.01;64.05;65642.16;5114692;28;20260;-72
2022/05/30 12:53:54;;;;;;;3.63;2.10;;;;;;;14.11;61.35;65662.59;5109567;28;20943;-71
2022/05/30 12:56:39;;;;;;;2.07;1.93;;;;;;;14.17;58.50;65667.19;5111535;28;20230;-72
2022/05/30 12:59:10;;;;;;;1.80;1.80;;;;;;;14.27;61.95;65680.38;5111939;28;20189;-71
2022/05/30 13:01:42;;;;;;;1.63;1.63;;;;;;;14.38;58.31;65689.44;5114019;28;20181;-72
2022/05/30 13:04:27;;;;;;;2.07;1.97;;;;;;;;;;5114988;28;20250;-72
2022/05/30 13:07:01;;;;;;;1.80;1.80;;;;;;;14.17;59.64;65659.38;5114160;28;20185;-71
2022/05/30 13:09:36;;;;;;;2.10;1.90;;;;;;;14.26;59.23;65676.66;5114786;28;20193;-72
2022/05/30 13:12:02;;;;;;;2.20;1.80;;;;;;;;;;5113460;28;20218;-71
2022/05/30 13:14:32;;;;;;;2.30;2.30;;;;;;;;;;5113728;28;20220;-73
2022/05/30 13:17:01;;;;;;;2.63;2.63;;;;;;;;;;5114801;28;20272;-73
2022/05/30 13:19:27;;;;;;;1.87;1.77;;;;;;;;;;5113724;28;20212;-72